sensor_id;sensor_type;location;lat;lon;timestamp;pressure;altitude;pressure_sealevel;temperature
13497;BMP180;6820;49.374;8.452;2022-08-21T00:03:11;100581.44;;;28.28
13497;BMP180;6820;49.374;8.452;2022-08-21T00:07:13;100578.00;;;28.24
13497;BMP180;6820;49.374;8.452;2022-08-21T00:11:15;100586.72;;;28.22
13497;BMP180;6820;49.374;8.452;2022-08-21T00:15:21;100589.34;;;28.19
13497;BMP180;6820;49.374;8.452;2022-08-21T00:19:23;100585.88;;;28.17
13497;BMP180;6820;49.374;8.452;2022-08-21T00:23:26;100578.09;;;28.13
13497;BMP180;6820;49.374;8.452;2022-08-21T00:27:27;100572.88;;;28.13
13497;BMP180;6820;49.374;8.452;2022-08-21T00:31:29;100563.38;;;28.07
13497;BMP180;6820;49.374;8.452;2022-08-21T00:35:34;100566.84;;;28.03
13497;BMP180;6820;49.374;8.452;2022-08-21T00:39:36;100568.59;;;27.98
13497;BMP180;6820;49.374;8.452;2022-08-21T00:43:39;100569.50;;;27.94
13497;BMP180;6820;49.374;8.452;2022-08-21T00:47:40;100567.75;;;27.90
13497;BMP180;6820;49.374;8.452;2022-08-21T00:51:51;100572.16;;;27.86
13497;BMP180;6820;49.374;8.452;2022-08-21T00:55:55;100568.72;;;27.78
13497;BMP180;6820;49.374;8.452;2022-08-21T01:00:00;100574.81;;;27.71
13497;BMP180;6820;49.374;8.452;2022-08-21T01:04:02;100574.84;;;27.65
13497;BMP180;6820;49.374;8.452;2022-08-21T01:08:05;100571.38;;;27.58
13497;BMP180;6820;49.374;8.452;2022-08-21T01:12:07;100576.63;;;27.54
13497;BMP180;6820;49.374;8.452;2022-08-21T01:16:10;100570.56;;;27.52
13497;BMP180;6820;49.374;8.452;2022-08-21T01:20:11;100571.44;;;27.47
13497;BMP180;6820;49.374;8.452;2022-08-21T01:24:14;100574.06;;;27.42
13497;BMP180;6820;49.374;8.452;2022-08-21T01:28:16;100576.69;;;27.38
13497;BMP180;6820;49.374;8.452;2022-08-21T01:32:19;100572.34;;;27.35
13497;BMP180;6820;49.374;8.452;2022-08-21T01:36:23;100577.56;;;27.35
13497;BMP180;6820;49.374;8.452;2022-08-21T01:40:24;100562.78;;;27.31
13497;BMP180;6820;49.374;8.452;2022-08-21T01:44:26;100566.25;;;27.26
13497;BMP180;6820;49.374;8.452;2022-08-21T01:48:28;100559.34;;;27.21
13497;BMP180;6820;49.374;8.452;2022-08-21T01:52:30;100566.31;;;27.14
13497;BMP180;6820;49.374;8.452;2022-08-21T01:56:37;100568.94;;;27.08
13497;BMP180;6820;49.374;8.452;2022-08-21T02:00:39;100565.47;;;27.06
13497;BMP180;6820;49.374;8.452;2022-08-21T02:04:41;100564.59;;;27.04
13497;BMP180;6820;49.374;8.452;2022-08-21T02:08:46;100561.13;;;26.99
13497;BMP180;6820;49.374;8.452;2022-08-21T02:12:48;100552.47;;;26.93
13497;BMP180;6820;49.374;8.452;2022-08-21T02:16:50;100552.50;;;26.87
13497;BMP180;6820;49.374;8.452;2022-08-21T02:21:06;100537.75;;;26.77
13497;BMP180;6820;49.374;8.452;2022-08-21T02:25:07;100553.34;;;26.64
13497;BMP180;6820;49.374;8.452;2022-08-21T02:29:09;100553.34;;;26.61
13497;BMP180;6820;49.374;8.452;2022-08-21T02:33:12;100554.22;;;26.62
13497;BMP180;6820;49.374;8.452;2022-08-21T02:37:14;100549.00;;;26.62
13497;BMP180;6820;49.374;8.452;2022-08-21T02:41:18;100553.34;;;26.60
13497;BMP180;6820;49.374;8.452;2022-08-21T02:45:22;100555.06;;;26.55
13497;BMP180;6820;49.374;8.452;2022-08-21T02:49:23;100554.22;;;26.50
13497;BMP180;6820;49.374;8.452;2022-08-21T02:53:25;100548.13;;;26.43
13497;BMP180;6820;49.374;8.452;2022-08-21T02:57:27;100547.28;;;26.37
13497;BMP180;6820;49.374;8.452;2022-08-21T03:01:29;100555.94;;;26.26
13497;BMP180;6820;49.374;8.452;2022-08-21T03:05:31;100547.25;;;26.16
13497;BMP180;6820;49.374;8.452;2022-08-21T03:09:33;100550.69;;;26.08
13497;BMP180;6820;49.374;8.452;2022-08-21T03:13:35;100548.06;;;26.03
13497;BMP180;6820;49.374;8.452;2022-08-21T03:17:37;100558.47;;;25.99
13497;BMP180;6820;49.374;8.452;2022-08-21T03:21:38;100553.22;;;25.96
13497;BMP180;6820;49.374;8.452;2022-08-21T03:25:41;100549.72;;;25.79
13497;BMP180;6820;49.374;8.452;2022-08-21T03:29:42;100555.78;;;25.74
13497;BMP180;6820;49.374;8.452;2022-08-21T03:33:44;100555.78;;;25.74
13497;BMP180;6820;49.374;8.452;2022-08-21T03:37:46;100558.34;;;25.65
13497;BMP180;6820;49.374;8.452;2022-08-21T03:41:48;100566.13;;;25.64
13497;BMP180;6820;49.374;8.452;2022-08-21T03:45:50;100556.59;;;25.64
13497;BMP180;6820;49.374;8.452;2022-08-21T03:49:53;100554.91;;;25.65
13497;BMP180;6820;49.374;8.452;2022-08-21T03:53:55;100560.94;;;25.62
13497;BMP180;6820;49.374;8.452;2022-08-21T03:57:57;100566.97;;;25.60
13497;BMP180;6820;49.374;8.452;2022-08-21T04:02:00;100567.81;;;25.56
13497;BMP180;6820;49.374;8.452;2022-08-21T04:06:03;100574.75;;;25.54
13497;BMP180;6820;49.374;8.452;2022-08-21T04:10:06;100575.59;;;25.50
13497;BMP180;6820;49.374;8.452;2022-08-21T04:14:09;100581.59;;;25.46
13497;BMP180;6820;49.374;8.452;2022-08-21T04:18:10;100589.31;;;25.37
13497;BMP180;6820;49.374;8.452;2022-08-21T04:22:12;100588.44;;;25.34
13497;BMP180;6820;49.374;8.452;2022-08-21T04:26:14;100589.28;;;25.28
13497;BMP180;6820;49.374;8.452;2022-08-21T04:30:16;100589.22;;;25.15
13497;BMP180;6820;49.374;8.452;2022-08-21T04:34:18;100598.69;;;25.11
13497;BMP180;6820;49.374;8.452;2022-08-21T04:38:20;100614.28;;;25.14
13497;BMP180;6820;49.374;8.452;2022-08-21T04:42:22;100615.16;;;25.15
13497;BMP180;6820;49.374;8.452;2022-08-21T04:46:23;100628.13;;;25.18
13497;BMP180;6820;49.374;8.452;2022-08-21T04:54:38;100616.09;;;25.24
13497;BMP180;6820;49.374;8.452;2022-08-21T04:58:41;100623.00;;;25.25
13497;BMP180;6820;49.374;8.452;2022-08-21T05:02:43;100613.47;;;25.26
13497;BMP180;6820;49.374;8.452;2022-08-21T05:06:46;100622.16;;;25.28
13497;BMP180;6820;49.374;8.452;2022-08-21T05:10:49;100614.38;;;25.28
13497;BMP180;6820;49.374;8.452;2022-08-21T05:14:50;100622.16;;;25.31
13497;BMP180;6820;49.374;8.452;2022-08-21T05:18:52;100613.53;;;25.35
13497;BMP180;6820;49.374;8.452;2022-08-21T05:22:54;100618.75;;;25.38
13497;BMP180;6820;49.374;8.452;2022-08-21T05:26:57;100629.16;;;25.45
13497;BMP180;6820;49.374;8.452;2022-08-21T05:30:58;100628.34;;;25.50
13497;BMP180;6820;49.374;8.452;2022-08-21T05:35:00;100628.41;;;25.55
13497;BMP180;6820;49.374;8.452;2022-08-21T05:39:02;100633.63;;;25.59
13497;BMP180;6820;49.374;8.452;2022-08-21T05:43:04;100627.56;;;25.63
13497;BMP180;6820;49.374;8.452;2022-08-21T05:47:07;100632.75;;;25.63
13497;BMP180;6820;49.374;8.452;2022-08-21T05:51:12;100629.31;;;25.69
13497;BMP180;6820;49.374;8.452;2022-08-21T05:55:13;100640.56;;;25.68
13497;BMP180;6820;49.374;8.452;2022-08-21T05:59:15;100636.25;;;25.74
13497;BMP180;6820;49.374;8.452;2022-08-21T06:03:22;100632.81;;;25.79
13497;BMP180;6820;49.374;8.452;2022-08-21T06:07:24;100632.84;;;25.78
13497;BMP180;6820;49.374;8.452;2022-08-21T06:11:26;100638.94;;;25.86
13497;BMP180;6820;49.374;8.452;2022-08-21T06:15:29;100638.97;;;25.95
13497;BMP180;6820;49.374;8.452;2022-08-21T06:19:31;100645.88;;;25.96
13497;BMP180;6820;49.374;8.452;2022-08-21T06:23:34;100641.53;;;25.96
13497;BMP180;6820;49.374;8.452;2022-08-21T06:27:36;100645.91;;;26.06
13497;BMP180;6820;49.374;8.452;2022-08-21T06:31:39;100645.06;;;26.11
13497;BMP180;6820;49.374;8.452;2022-08-21T06:35:41;100648.56;;;26.13
13497;BMP180;6820;49.374;8.452;2022-08-21T06:39:43;100646.00;;;26.21
13497;BMP180;6820;49.374;8.452;2022-08-21T06:43:45;100646.88;;;26.27
13497;BMP180;6820;49.374;8.452;2022-08-21T06:47:47;100644.31;;;26.34
13497;BMP180;6820;49.374;8.452;2022-08-21T06:51:49;100646.03;;;26.41
13497;BMP180;6820;49.374;8.452;2022-08-21T06:55:51;100653.88;;;26.53
13497;BMP180;6820;49.374;8.452;2022-08-21T06:59:53;100640.00;;;26.62
13497;BMP180;6820;49.374;8.452;2022-08-21T07:03:55;100648.69;;;26.71
13497;BMP180;6820;49.374;8.452;2022-08-21T07:07:57;100639.19;;;26.77
13497;BMP180;6820;49.374;8.452;2022-08-21T07:11:59;100637.44;;;26.84
13497;BMP180;6820;49.374;8.452;2022-08-21T07:16:01;100635.72;;;26.92
13497;BMP180;6820;49.374;8.452;2022-08-21T07:20:05;100623.56;;;26.96
13497;BMP180;6820;49.374;8.452;2022-08-21T07:24:07;100623.56;;;27.02
13497;BMP180;6820;49.374;8.452;2022-08-21T07:28:09;100614.03;;;27.06
13497;BMP180;6820;49.374;8.452;2022-08-21T07:32:11;100615.72;;;27.16
13497;BMP180;6820;49.374;8.452;2022-08-21T07:36:14;100617.44;;;27.28
13497;BMP180;6820;49.374;8.452;2022-08-21T07:40:16;100618.31;;;27.45
13497;BMP180;6820;49.374;8.452;2022-08-21T07:44:18;100615.66;;;27.55
13497;BMP180;6820;49.374;8.452;2022-08-21T07:48:21;100617.38;;;27.65
13497;BMP180;6820;49.374;8.452;2022-08-21T07:52:23;100618.22;;;27.78
13497;BMP180;6820;49.374;8.452;2022-08-21T07:56:31;100617.28;;;27.87
13497;BMP180;6820;49.374;8.452;2022-08-21T08:00:34;100614.66;;;27.99
13497;BMP180;6820;49.374;8.452;2022-08-21T08:04:35;100611.97;;;28.11
13497;BMP180;6820;49.374;8.452;2022-08-21T08:08:50;100617.19;;;28.13
13497;BMP180;6820;49.374;8.452;2022-08-21T08:12:52;100611.94;;;28.14
13497;BMP180;6820;49.374;8.452;2022-08-21T08:16:56;100609.31;;;28.18
13497;BMP180;6820;49.374;8.452;2022-08-21T08:20:57;100604.06;;;28.29
13497;BMP180;6820;49.374;8.452;2022-08-21T08:24:59;100603.94;;;28.44
13497;BMP180;6820;49.374;8.452;2022-08-21T08:29:01;100603.03;;;28.52
13497;BMP180;6820;49.374;8.452;2022-08-21T08:33:03;100603.88;;;28.58
13497;BMP180;6820;49.374;8.452;2022-08-21T08:37:06;100589.06;;;28.63
13497;BMP180;6820;49.374;8.452;2022-08-21T08:41:12;100578.47;;;28.78
13497;BMP180;6820;49.374;8.452;2022-08-21T08:45:18;100578.38;;;28.88
13497;BMP180;6820;49.374;8.452;2022-08-21T08:49:53;100565.25;;;28.94
13497;BMP180;6820;49.374;8.452;2022-08-21T08:54:02;100559.13;;;29.01
13497;BMP180;6820;49.374;8.452;2022-08-21T08:58:06;100562.50;;;29.12
13497;BMP180;6820;49.374;8.452;2022-08-21T09:02:11;100559.72;;;29.30
13497;BMP180;6820;49.374;8.452;2022-08-21T09:10:38;100550.81;;;29.45
13497;BMP180;6820;49.374;8.452;2022-08-21T09:19:22;100546.97;;;29.76
13497;BMP180;6820;49.374;8.452;2022-08-21T09:23:51;100533.66;;;29.92
13497;BMP180;6820;49.374;8.452;2022-08-21T09:27:55;100527.44;;;30.01
13497;BMP180;6820;49.374;8.452;2022-08-21T09:31:57;100526.47;;;30.07
13497;BMP180;6820;49.374;8.452;2022-08-21T09:35:58;100521.97;;;30.18
13497;BMP180;6820;49.374;8.452;2022-08-21T09:40:15;100517.50;;;30.25
13497;BMP180;6820;49.374;8.452;2022-08-21T09:44:26;100521.53;;;30.45
13497;BMP180;6820;49.374;8.452;2022-08-21T09:48:28;100521.19;;;30.63
13497;BMP180;6820;49.374;8.452;2022-08-21T09:52:33;100517.41;;;30.81
13497;BMP180;6820;49.374;8.452;2022-08-21T09:57:14;100522.38;;;30.96
13497;BMP180;6820;49.374;8.452;2022-08-21T10:01:49;100518.56;;;31.12
13497;BMP180;6820;49.374;8.452;2022-08-21T10:10:07;100513.75;;;31.34
13497;BMP180;6820;49.374;8.452;2022-08-21T10:14:17;100511.03;;;31.40
13497;BMP180;6820;49.374;8.452;2022-08-21T10:18:30;100508.16;;;31.52
13497;BMP180;6820;49.374;8.452;2022-08-21T10:35:31;100495.84;;;31.94
13497;BMP180;6820;49.374;8.452;2022-08-21T10:43:48;100489.53;;;32.03
13497;BMP180;6820;49.374;8.452;2022-08-21T10:47:57;100482.19;;;32.18
13497;BMP180;6820;49.374;8.452;2022-08-21T10:56:18;100466.97;;;32.32
13497;BMP180;6820;49.374;8.452;2022-08-21T11:00:23;100468.56;;;32.39
13497;BMP180;6820;49.374;8.452;2022-08-21T11:04:50;100467.38;;;32.50
13497;BMP180;6820;49.374;8.452;2022-08-21T11:08:58;100465.53;;;32.53
13497;BMP180;6820;49.374;8.452;2022-08-21T11:13:05;100455.00;;;32.55
13497;BMP180;6820;49.374;8.452;2022-08-21T11:17:14;100449.50;;;32.64
13497;BMP180;6820;49.374;8.452;2022-08-21T11:21:36;100444.84;;;32.73
13497;BMP180;6820;49.374;8.452;2022-08-21T11:25:45;100443.75;;;32.83
13497;BMP180;6820;49.374;8.452;2022-08-21T11:29:52;100441.75;;;32.92
13497;BMP180;6820;49.374;8.452;2022-08-21T11:38:42;100436.19;;;33.03
13497;BMP180;6820;49.374;8.452;2022-08-21T11:47:45;100426.19;;;33.15
13497;BMP180;6820;49.374;8.452;2022-08-21T11:52:12;100417.16;;;33.25
13497;BMP180;6820;49.374;8.452;2022-08-21T11:56:19;100420.44;;;33.31
13497;BMP180;6820;49.374;8.452;2022-08-21T12:00:27;100410.53;;;33.41
13497;BMP180;6820;49.374;8.452;2022-08-21T12:04:34;100411.16;;;33.48
13497;BMP180;6820;49.374;8.452;2022-08-21T12:08:39;100395.97;;;33.58
13497;BMP180;6820;49.374;8.452;2022-08-21T12:12:44;100405.13;;;33.74
13497;BMP180;6820;49.374;8.452;2022-08-21T12:16:48;100394.28;;;33.82
13497;BMP180;6820;49.374;8.452;2022-08-21T12:25:07;100391.94;;;34.01
13497;BMP180;6820;49.374;8.452;2022-08-21T12:29:35;100400.19;;;34.16
13497;BMP180;6820;49.374;8.452;2022-08-21T12:33:39;100396.25;;;34.29
13497;BMP180;6820;49.374;8.452;2022-08-21T12:37:48;100395.94;;;34.38
13497;BMP180;6820;49.374;8.452;2022-08-21T12:41:57;100384.88;;;34.52
13497;BMP180;6820;49.374;8.452;2022-08-21T12:46:03;100384.31;;;34.69
13497;BMP180;6820;49.374;8.452;2022-08-21T12:50:11;100382.72;;;34.87
13497;BMP180;6820;49.374;8.452;2022-08-21T12:54:32;100380.44;;;35.01
13497;BMP180;6820;49.374;8.452;2022-08-21T12:58:43;100372.03;;;35.14
13497;BMP180;6820;49.374;8.452;2022-08-21T13:02:48;100370.59;;;35.29
13497;BMP180;6820;49.374;8.452;2022-08-21T13:06:53;100361.41;;;35.38
13497;BMP180;6820;49.374;8.452;2022-08-21T13:11:02;100373.00;;;35.56
13497;BMP180;6820;49.374;8.452;2022-08-21T13:15:24;100361.75;;;35.73
13497;BMP180;6820;49.374;8.452;2022-08-21T13:19:34;100354.78;;;35.92
13497;BMP180;6820;49.374;8.452;2022-08-21T13:23:35;100355.84;;;36.09
13497;BMP180;6820;49.374;8.452;2022-08-21T13:27:38;100352.59;;;36.23
13497;BMP180;6820;49.374;8.452;2022-08-21T13:31:41;100343.59;;;36.46
13497;BMP180;6820;49.374;8.452;2022-08-21T13:36:03;100344.16;;;36.54
13497;BMP180;6820;49.374;8.452;2022-08-21T13:40:09;100339.00;;;36.71
13497;BMP180;6820;49.374;8.452;2022-08-21T13:44:33;100340.75;;;36.90
13497;BMP180;6820;49.374;8.452;2022-08-21T13:48:36;100338.41;;;37.02
13497;BMP180;6820;49.374;8.452;2022-08-21T13:52:47;100329.78;;;37.17
13497;BMP180;6820;49.374;8.452;2022-08-21T13:56:49;100323.19;;;37.07
13497;BMP180;6820;49.374;8.452;2022-08-21T14:00:52;100320.13;;;37.16
13497;BMP180;6820;49.374;8.452;2022-08-21T14:04:57;100331.06;;;37.27
13497;BMP180;6820;49.374;8.452;2022-08-21T14:09:12;100317.75;;;37.47
13497;BMP180;6820;49.374;8.452;2022-08-21T14:13:33;100324.00;;;37.62
13497;BMP180;6820;49.374;8.452;2022-08-21T14:17:39;100303.97;;;37.75
13497;BMP180;6820;49.374;8.452;2022-08-21T14:21:43;100299.72;;;37.89
13497;BMP180;6820;49.374;8.452;2022-08-21T14:25:45;100297.66;;;38.11
13497;BMP180;6820;49.374;8.452;2022-08-21T14:29:47;100287.03;;;38.29
13497;BMP180;6820;49.374;8.452;2022-08-21T14:33:49;100288.94;;;38.42
13497;BMP180;6820;49.374;8.452;2022-08-21T14:37:52;100285.47;;;38.57
13497;BMP180;6820;49.374;8.452;2022-08-21T14:41:56;100276.91;;;38.69
13497;BMP180;6820;49.374;8.452;2022-08-21T14:46:00;100267.75;;;38.74
13497;BMP180;6820;49.374;8.452;2022-08-21T14:50:02;100265.03;;;38.76
13497;BMP180;6820;49.374;8.452;2022-08-21T14:54:05;100255.91;;;38.65
13497;BMP180;6820;49.374;8.452;2022-08-21T14:58:07;100272.63;;;38.67
13497;BMP180;6820;49.374;8.452;2022-08-21T15:02:09;100259.13;;;38.71
13497;BMP180;6820;49.374;8.452;2022-08-21T15:06:10;100263.22;;;38.76
13497;BMP180;6820;49.374;8.452;2022-08-21T15:10:12;100255.78;;;38.83
13497;BMP180;6820;49.374;8.452;2022-08-21T15:14:22;100260.41;;;38.79
13497;BMP180;6820;49.374;8.452;2022-08-21T15:18:26;100254.25;;;38.79
13497;BMP180;6820;49.374;8.452;2022-08-21T15:22:28;100258.78;;;38.92
13497;BMP180;6820;49.374;8.452;2022-08-21T15:26:30;100256.56;;;39.00
13497;BMP180;6820;49.374;8.452;2022-08-21T15:30:31;100263.34;;;39.05
13497;BMP180;6820;49.374;8.452;2022-08-21T15:34:33;100254.22;;;39.11
13497;BMP180;6820;49.374;8.452;2022-08-21T15:38:35;100245.69;;;39.04
13497;BMP180;6820;49.374;8.452;2022-08-21T15:42:39;100249.19;;;39.05
13497;BMP180;6820;49.374;8.452;2022-08-21T15:46:41;100255.06;;;39.11
13497;BMP180;6820;49.374;8.452;2022-08-21T15:50:43;100241.25;;;39.05
13497;BMP180;6820;49.374;8.452;2022-08-21T15:54:45;100233.50;;;38.87
13497;BMP180;6820;49.374;8.452;2022-08-21T15:58:47;100224.91;;;38.97
13497;BMP180;6820;49.374;8.452;2022-08-21T16:02:55;100229.47;;;39.10
13497;BMP180;6820;49.374;8.452;2022-08-21T16:06:57;100231.97;;;39.13
13497;BMP180;6820;49.374;8.452;2022-08-21T16:11:08;100234.94;;;39.23
13497;BMP180;6820;49.374;8.452;2022-08-21T16:15:11;100234.16;;;39.21
13497;BMP180;6820;49.374;8.452;2022-08-21T16:19:20;100232.91;;;39.12
13497;BMP180;6820;49.374;8.452;2022-08-21T16:23:22;100226.28;;;39.04
13497;BMP180;6820;49.374;8.452;2022-08-21T16:27:24;100222.00;;;39.02
13497;BMP180;6820;49.374;8.452;2022-08-21T16:31:28;100219.59;;;38.97
13497;BMP180;6820;49.374;8.452;2022-08-21T16:35:30;100222.34;;;38.80
13497;BMP180;6820;49.374;8.452;2022-08-21T16:39:31;100217.94;;;38.49
13497;BMP180;6820;49.374;8.452;2022-08-21T16:43:33;100215.69;;;38.10
13497;BMP180;6820;49.374;8.452;2022-08-21T16:47:35;100206.75;;;37.62
13497;BMP180;6820;49.374;8.452;2022-08-21T16:51:37;100204.72;;;37.15
13497;BMP180;6820;49.374;8.452;2022-08-21T16:55:39;100212.81;;;36.76
13497;BMP180;6820;49.374;8.452;2022-08-21T16:59:41;100200.09;;;36.47
13497;BMP180;6820;49.374;8.452;2022-08-21T17:03:48;100200.50;;;36.38
13497;BMP180;6820;49.374;8.452;2022-08-21T17:07:51;100198.16;;;36.32
13497;BMP180;6820;49.374;8.452;2022-08-21T17:11:53;100203.34;;;36.16
13497;BMP180;6820;49.374;8.452;2022-08-21T17:15:54;100206.00;;;35.96
13497;BMP180;6820;49.374;8.452;2022-08-21T17:19:56;100201.91;;;35.89
13497;BMP180;6820;49.374;8.452;2022-08-21T17:23:58;100203.03;;;35.84
13497;BMP180;6820;49.374;8.452;2022-08-21T17:27:59;100205.59;;;35.65
13497;BMP180;6820;49.374;8.452;2022-08-21T17:32:03;100206.53;;;35.43
13497;BMP180;6820;49.374;8.452;2022-08-21T17:36:06;100198.72;;;35.21
13497;BMP180;6820;49.374;8.452;2022-08-21T17:40:10;100197.66;;;35.03
13497;BMP180;6820;49.374;8.452;2022-08-21T17:44:15;100203.66;;;34.86
13497;BMP180;6820;49.374;8.452;2022-08-21T17:48:19;100202.50;;;34.71
13497;BMP180;6820;49.374;8.452;2022-08-21T17:52:25;100201.31;;;34.56
13497;BMP180;6820;49.374;8.452;2022-08-21T17:56:30;100194.94;;;34.40
13497;BMP180;6820;49.374;8.452;2022-08-21T18:00:33;100211.22;;;34.27
13497;BMP180;6820;49.374;8.452;2022-08-21T18:04:34;100205.59;;;34.13
13497;BMP180;6820;49.374;8.452;2022-08-21T18:08:36;100211.38;;;33.98
13497;BMP180;6820;49.374;8.452;2022-08-21T18:12:39;100208.47;;;33.83
13497;BMP180;6820;49.374;8.452;2022-08-21T18:16:41;100214.16;;;33.70
13497;BMP180;6820;49.374;8.452;2022-08-21T18:20:43;100218.22;;;33.54
13497;BMP180;6820;49.374;8.452;2022-08-21T18:24:44;100210.09;;;33.36
13497;BMP180;6820;49.374;8.452;2022-08-21T18:28:46;100213.16;;;33.22
13497;BMP180;6820;49.374;8.452;2022-08-21T18:32:49;100220.50;;;33.12
13497;BMP180;6820;49.374;8.452;2022-08-21T18:36:53;100229.59;;;33.02
13497;BMP180;6820;49.374;8.452;2022-08-21T18:40:55;100235.88;;;32.96
13497;BMP180;6820;49.374;8.452;2022-08-21T18:45:00;100237.88;;;32.90
13497;BMP180;6820;49.374;8.452;2022-08-21T18:49:02;100225.78;;;32.84
13497;BMP180;6820;49.374;8.452;2022-08-21T18:53:05;100238.19;;;32.80
13497;BMP180;6820;49.374;8.452;2022-08-21T18:57:28;100245.41;;;32.72
13497;BMP180;6820;49.374;8.452;2022-08-21T19:01:31;100247.31;;;32.65
13497;BMP180;6820;49.374;8.452;2022-08-21T19:05:33;100255.38;;;32.59
13497;BMP180;6820;49.374;8.452;2022-08-21T19:09:36;100260.00;;;32.51
13497;BMP180;6820;49.374;8.452;2022-08-21T19:13:38;100248.94;;;32.42
13497;BMP180;6820;49.374;8.452;2022-08-21T19:17:40;100255.31;;;32.34
13497;BMP180;6820;49.374;8.452;2022-08-21T19:21:43;100252.09;;;32.23
13497;BMP180;6820;49.374;8.452;2022-08-21T19:25:46;100249.84;;;32.10
13497;BMP180;6820;49.374;8.452;2022-08-21T19:29:52;100251.81;;;32.02
13497;BMP180;6820;49.374;8.452;2022-08-21T19:33:58;100265.94;;;31.96
13497;BMP180;6820;49.374;8.452;2022-08-21T19:38:02;100267.06;;;31.88
13497;BMP180;6820;49.374;8.452;2022-08-21T19:42:06;100272.50;;;31.81
13497;BMP180;6820;49.374;8.452;2022-08-21T19:46:11;100262.13;;;31.76
13497;BMP180;6820;49.374;8.452;2022-08-21T19:50:17;100263.06;;;31.72
13497;BMP180;6820;49.374;8.452;2022-08-21T19:54:28;100257.94;;;31.68
13497;BMP180;6820;49.374;8.452;2022-08-21T19:58:37;100265.13;;;31.61
13497;BMP180;6820;49.374;8.452;2022-08-21T20:02:39;100271.50;;;31.50
13497;BMP180;6820;49.374;8.452;2022-08-21T20:06:59;100266.41;;;31.44
13497;BMP180;6820;49.374;8.452;2022-08-21T20:11:02;100263.16;;;31.35
13497;BMP180;6820;49.374;8.452;2022-08-21T20:15:24;100266.09;;;31.22
13497;BMP180;6820;49.374;8.452;2022-08-21T20:19:25;100270.63;;;31.14
13497;BMP180;6820;49.374;8.452;2022-08-21T20:23:32;100268.13;;;31.08
13497;BMP180;6820;49.374;8.452;2022-08-21T20:27:35;100264.75;;;31.04
13497;BMP180;6820;49.374;8.452;2022-08-21T20:31:41;100262.22;;;31.00
13497;BMP180;6820;49.374;8.452;2022-08-21T20:35:43;100256.25;;;30.94
13497;BMP180;6820;49.374;8.452;2022-08-21T20:39:48;100256.34;;;30.91
13497;BMP180;6820;49.374;8.452;2022-08-21T20:43:50;100263.41;;;30.87
13497;BMP180;6820;49.374;8.452;2022-08-21T20:48:08;100267.94;;;30.79
13497;BMP180;6820;49.374;8.452;2022-08-21T20:52:13;100269.81;;;30.74
13497;BMP180;6820;49.374;8.452;2022-08-21T21:01:01;100274.31;;;30.65
13497;BMP180;6820;49.374;8.452;2022-08-21T21:05:20;100277.84;;;30.64
13497;BMP180;6820;49.374;8.452;2022-08-21T21:09:39;100278.81;;;30.60
13497;BMP180;6820;49.374;8.452;2022-08-21T21:17:57;100281.94;;;30.36
13497;BMP180;6820;49.374;8.452;2022-08-21T21:22:39;100289.22;;;30.20
13497;BMP180;6820;49.374;8.452;2022-08-21T21:30:49;100293.91;;;30.02
13497;BMP180;6820;49.374;8.452;2022-08-21T21:34:58;100297.34;;;30.03
13497;BMP180;6820;49.374;8.452;2022-08-21T21:39:22;100302.56;;;30.05
13497;BMP180;6820;49.374;8.452;2022-08-21T21:44:01;100293.94;;;29.99
13497;BMP180;6820;49.374;8.452;2022-08-21T21:52:49;100296.78;;;29.87
13497;BMP180;6820;49.374;8.452;2022-08-21T22:06:22;100288.66;;;29.52
13497;BMP180;6820;49.374;8.452;2022-08-21T22:10:31;100299.03;;;29.55
13497;BMP180;6820;49.374;8.452;2022-08-21T22:14:43;100303.41;;;29.55
13497;BMP180;6820;49.374;8.452;2022-08-21T22:18:52;100300.84;;;29.52
13497;BMP180;6820;49.374;8.452;2022-08-21T22:22:56;100298.25;;;29.50
13497;BMP180;6820;49.374;8.452;2022-08-21T22:27:03;100302.63;;;29.50
13497;BMP180;6820;49.374;8.452;2022-08-21T22:31:22;100303.56;;;29.44
13497;BMP180;6820;49.374;8.452;2022-08-21T22:35:25;100294.09;;;29.39
13497;BMP180;6820;49.374;8.452;2022-08-21T22:39:37;100300.22;;;29.37
13497;BMP180;6820;49.374;8.452;2022-08-21T22:44:01;100301.13;;;29.34
13497;BMP180;6820;49.374;8.452;2022-08-21T22:48:07;100304.78;;;29.24
13497;BMP180;6820;49.374;8.452;2022-08-21T22:52:46;100325.72;;;29.20
13497;BMP180;6820;49.374;8.452;2022-08-21T22:57:01;100336.31;;;29.10
13497;BMP180;6820;49.374;8.452;2022-08-21T23:05:32;100334.00;;;28.87
13497;BMP180;6820;49.374;8.452;2022-08-21T23:09:46;100338.44;;;28.78
13497;BMP180;6820;49.374;8.452;2022-08-21T23:13:51;100333.47;;;28.59
13497;BMP180;6820;49.374;8.452;2022-08-21T23:18:01;100327.38;;;28.63
13497;BMP180;6820;49.374;8.452;2022-08-21T23:26:42;100331.56;;;28.73
13497;BMP180;6820;49.374;8.452;2022-08-21T23:35:23;100335.03;;;28.75
